Pagrindinis puslapis
METAR-TAF:

METAR-TAF

Oro uostai :

Nome, Aliaska, Jungtinės Amerikos Valstijos

platuma: 64-30-43N, ilguma: 165-26-42W, Aukštis: 11 m

Dabartinis oras

Ataskaita buvo paskelbta 32 minutes, ne 22:53 UTC
Vėjas 7 kt iš Pietų
Temperatūra 10°C
Drėgmė 82%
Slėgis 1016 hPa
Matomumas: 16.1 km
Apsiniaukę ne aukštis 4000 ft

METAR: PAOM 052253Z 18007KT 10SM OVC040 10/07 A3001 RMK AO2 CIG 006 NE SLP161 T01000072

Laikas: 15:25 (23:25 UTC)

Prognozė

Ataskaita buvo paskelbta 5 valandos ir 47 minutes, ne 17:38 UTC
Prognozė galioja nuo 05 metu 18 UTC su 06 metu 18 UTC
Vėjas 3 kt nuo kintamojo kryptimis
Matomumas: 10 km
Su prošvaistėmis ne aukštis 3000 ft
Nuo 05 metu 2000 UTC
Vėjas 7 kt iš Pietvakarių
Matomumas: 10 km
Su prošvaistėmis ne aukštis 4500 ft
Nuo 06 metu 0800 UTC
Vėjas 4 kt iš Vakarų/Šiaurės Vakarų
Matomumas: 10 km
Su prošvaistėmis ne aukštis 4500 ft

TAF: PAOM 051738Z 0518/0618 VRB03KT P6SM BKN030 FM052000 22007KT P6SM BKN045 FM060800 29004KT P6SM BKN045

Orai ataskaitas ir orų prognozės (METAR, TAF).

turimą stotys yra geltonos ir raudonos taškus žemėlapyje.

Perkelti pele per norėdami pamatyti stoties vardą.

Tada spustelėkite, norėdami matyti oro stebėjimo ir prognozės.

Norėdami pakeisti žemėlapį: spustelėkite ant žalios mygtukų su juodo kryžiaus žemyn,; žalią mygtuką su brūkšneliu, jei norite nutolinti; arba žalių rodyklių gretimoms žemėlapius.


METAR-TAF: